sensor_id;sensor_type;location;lat;lon;timestamp;pressure;altitude;pressure_sealevel;temperature;humidity
84592;BME280;74826;50.812;16.038;2023-12-29T00:01:12;96540.72;;;3.95;76.29
84592;BME280;74826;50.812;16.038;2023-12-29T00:03:38;96522.06;;;3.83;74.87
84592;BME280;74826;50.812;16.038;2023-12-29T00:06:03;96543.81;;;3.97;74.34
84592;BME280;74826;50.812;16.038;2023-12-29T00:08:29;96526.75;;;3.86;74.58
84592;BME280;74826;50.812;16.038;2023-12-29T00:10:55;96529.78;;;3.93;73.97
84592;BME280;74826;50.812;16.038;2023-12-29T00:13:20;96530.84;;;3.92;73.33
84592;BME280;74826;50.812;16.038;2023-12-29T00:15:51;96512.69;;;3.82;73.60
84592;BME280;74826;50.812;16.038;2023-12-29T00:18:17;96531.38;;;3.89;74.35
84592;BME280;74826;50.812;16.038;2023-12-29T00:20:43;96523.56;;;3.89;73.21
84592;BME280;74826;50.812;16.038;2023-12-29T00:23:08;96505.50;;;3.74;72.00
84592;BME280;74826;50.812;16.038;2023-12-29T00:25:37;96498.78;;;3.68;71.95
84592;BME280;74826;50.812;16.038;2023-12-29T00:28:03;96520.22;;;3.65;73.14
84592;BME280;74826;50.812;16.038;2023-12-29T00:30:28;96520.06;;;3.32;74.80
84592;BME280;74826;50.812;16.038;2023-12-29T00:32:57;96529.94;;;3.35;75.12
84592;BME280;74826;50.812;16.038;2023-12-29T00:35:23;96527.56;;;3.39;74.21
84592;BME280;74826;50.812;16.038;2023-12-29T00:37:50;96519.56;;;3.30;74.79
84592;BME280;74826;50.812;16.038;2023-12-29T00:40:16;96513.22;;;3.36;75.92
84592;BME280;74826;50.812;16.038;2023-12-29T00:42:41;96521.13;;;3.31;75.84
84592;BME280;74826;50.812;16.038;2023-12-29T00:45:07;96501.59;;;3.29;74.64
84592;BME280;74826;50.812;16.038;2023-12-29T00:47:33;96522.22;;;3.25;75.73
84592;BME280;74826;50.812;16.038;2023-12-29T00:50:00;96500.38;;;3.21;76.48
84592;BME280;74826;50.812;16.038;2023-12-29T00:52:26;96505.00;;;3.24;76.66
84592;BME280;74826;50.812;16.038;2023-12-29T00:54:51;96512.66;;;3.39;81.42
84592;BME280;74826;50.812;16.038;2023-12-29T00:57:16;96509.50;;;3.42;78.26
84592;BME280;74826;50.812;16.038;2023-12-29T00:59:42;96496.47;;;3.42;77.39
84592;BME280;74826;50.812;16.038;2023-12-29T01:02:09;96506.81;;;3.52;76.66
84592;BME280;74826;50.812;16.038;2023-12-29T01:04:37;96484.38;;;3.51;76.65
84592;BME280;74826;50.812;16.038;2023-12-29T01:07:04;96487.47;;;3.53;75.32
84592;BME280;74826;50.812;16.038;2023-12-29T01:09:29;96489.59;;;3.51;77.61
84592;BME280;74826;50.812;16.038;2023-12-29T01:11:54;96494.25;;;3.54;76.61
84592;BME280;74826;50.812;16.038;2023-12-29T01:14:20;96499.34;;;3.65;77.72
84592;BME280;74826;50.812;16.038;2023-12-29T01:16:45;96494.53;;;3.53;76.12
84592;BME280;74826;50.812;16.038;2023-12-29T01:19:11;96489.34;;;3.53;76.06
84592;BME280;74826;50.812;16.038;2023-12-29T01:21:39;96487.06;;;3.46;76.65
84592;BME280;74826;50.812;16.038;2023-12-29T01:24:05;96486.97;;;3.51;74.65
84592;BME280;74826;50.812;16.038;2023-12-29T01:26:36;96486.97;;;3.51;74.20
84592;BME280;74826;50.812;16.038;2023-12-29T01:29:01;96471.91;;;3.48;72.88
84592;BME280;74826;50.812;16.038;2023-12-29T01:31:29;96482.34;;;3.48;73.79
84592;BME280;74826;50.812;16.038;2023-12-29T01:33:56;96482.38;;;3.43;73.12
84592;BME280;74826;50.812;16.038;2023-12-29T01:36:21;96453.09;;;3.28;73.57
84592;BME280;74826;50.812;16.038;2023-12-29T01:38:47;96443.06;;;3.16;74.15
84592;BME280;74826;50.812;16.038;2023-12-29T01:41:12;96448.78;;;3.18;74.50
84592;BME280;74826;50.812;16.038;2023-12-29T01:46:33;96476.31;;;3.29;76.56
84592;BME280;74826;50.812;16.038;2023-12-29T01:48:59;96484.06;;;3.34;76.57
84592;BME280;74826;50.812;16.038;2023-12-29T01:51:26;96474.31;;;3.21;76.11
84592;BME280;74826;50.812;16.038;2023-12-29T01:53:52;96453.25;;;3.18;75.00
84592;BME280;74826;50.812;16.038;2023-12-29T01:56:19;96461.78;;;3.23;77.07
84592;BME280;74826;50.812;16.038;2023-12-29T01:58:47;96475.41;;;3.39;74.76
84592;BME280;74826;50.812;16.038;2023-12-29T02:01:14;96460.91;;;3.28;74.20
84592;BME280;74826;50.812;16.038;2023-12-29T02:03:40;96451.34;;;3.23;73.23
84592;BME280;74826;50.812;16.038;2023-12-29T02:06:06;96482.44;;;3.38;73.25
84592;BME280;74826;50.812;16.038;2023-12-29T02:08:31;96467.41;;;3.30;73.42
84592;BME280;74826;50.812;16.038;2023-12-29T02:10:57;96470.41;;;3.42;73.79
84592;BME280;74826;50.812;16.038;2023-12-29T02:13:23;96449.78;;;3.22;75.09
84592;BME280;74826;50.812;16.038;2023-12-29T02:15:52;96462.78;;;3.27;77.76
84592;BME280;74826;50.812;16.038;2023-12-29T02:18:20;96447.66;;;3.24;77.16
84592;BME280;74826;50.812;16.038;2023-12-29T02:20:46;96451.13;;;3.20;76.05
84592;BME280;74826;50.812;16.038;2023-12-29T02:23:12;96432.81;;;3.01;78.63
84592;BME280;74826;50.812;16.038;2023-12-29T02:25:37;96426.53;;;3.26;83.92
84592;BME280;74826;50.812;16.038;2023-12-29T02:28:12;96433.41;;;3.40;83.08
84592;BME280;74826;50.812;16.038;2023-12-29T02:30:48;96424.22;;;3.67;84.55
84592;BME280;74826;50.812;16.038;2023-12-29T02:33:21;96394.16;;;3.69;83.99
84592;BME280;74826;50.812;16.038;2023-12-29T02:35:48;96401.75;;;4.03;83.59
84592;BME280;74826;50.812;16.038;2023-12-29T02:38:16;96401.03;;;4.16;82.76
84592;BME280;74826;50.812;16.038;2023-12-29T02:40:42;96400.13;;;4.39;83.43
84592;BME280;74826;50.812;16.038;2023-12-29T02:43:10;96405.00;;;4.59;83.74
84592;BME280;74826;50.812;16.038;2023-12-29T02:45:36;96411.59;;;4.70;81.99
84592;BME280;74826;50.812;16.038;2023-12-29T02:48:01;96387.81;;;4.72;81.74
84592;BME280;74826;50.812;16.038;2023-12-29T02:50:27;96415.69;;;5.03;81.72
84592;BME280;74826;50.812;16.038;2023-12-29T02:52:52;96415.13;;;5.06;79.58
84592;BME280;74826;50.812;16.038;2023-12-29T02:55:18;96386.06;;;4.81;77.96
84592;BME280;74826;50.812;16.038;2023-12-29T02:57:44;96404.47;;;4.89;74.81
84592;BME280;74826;50.812;16.038;2023-12-29T03:00:09;96407.75;;;4.81;73.67
84592;BME280;74826;50.812;16.038;2023-12-29T03:02:35;96401.38;;;4.74;74.12
84592;BME280;74826;50.812;16.038;2023-12-29T03:05:01;96403.28;;;4.68;73.37
84592;BME280;74826;50.812;16.038;2023-12-29T03:07:27;96393.78;;;4.59;75.87
84592;BME280;74826;50.812;16.038;2023-12-29T03:09:52;96371.53;;;4.47;75.65
84592;BME280;74826;50.812;16.038;2023-12-29T03:12:18;96366.31;;;4.47;76.00
84592;BME280;74826;50.812;16.038;2023-12-29T03:14:44;96362.34;;;4.50;75.06
84592;BME280;74826;50.812;16.038;2023-12-29T03:17:10;96339.88;;;4.49;75.51
84592;BME280;74826;50.812;16.038;2023-12-29T03:19:35;96356.53;;;4.53;76.09
84592;BME280;74826;50.812;16.038;2023-12-29T03:22:01;96343.66;;;4.43;74.70
84592;BME280;74826;50.812;16.038;2023-12-29T03:24:28;96366.28;;;4.34;74.74
84592;BME280;74826;50.812;16.038;2023-12-29T03:26:54;96353.06;;;4.12;77.11
84592;BME280;74826;50.812;16.038;2023-12-29T03:29:19;96351.53;;;4.11;76.31
84592;BME280;74826;50.812;16.038;2023-12-29T03:31:45;96349.31;;;3.86;76.03
84592;BME280;74826;50.812;16.038;2023-12-29T03:34:10;96348.84;;;3.84;76.99
84592;BME280;74826;50.812;16.038;2023-12-29T03:36:35;96361.44;;;3.95;76.33
84592;BME280;74826;50.812;16.038;2023-12-29T03:39:01;96345.63;;;3.87;76.61
84592;BME280;74826;50.812;16.038;2023-12-29T03:41:27;96343.81;;;3.87;77.16
84592;BME280;74826;50.812;16.038;2023-12-29T03:43:53;96359.03;;;3.99;78.52
84592;BME280;74826;50.812;16.038;2023-12-29T03:46:22;96345.69;;;4.00;77.31
84592;BME280;74826;50.812;16.038;2023-12-29T03:48:48;96352.28;;;3.98;74.72
84592;BME280;74826;50.812;16.038;2023-12-29T03:51:17;96348.19;;;3.92;76.70
84592;BME280;74826;50.812;16.038;2023-12-29T03:53:43;96346.81;;;3.94;77.08
84592;BME280;74826;50.812;16.038;2023-12-29T03:56:09;96348.59;;;3.99;75.58
84592;BME280;74826;50.812;16.038;2023-12-29T03:58:37;96341.91;;;3.93;76.75
84592;BME280;74826;50.812;16.038;2023-12-29T04:01:03;96347.13;;;3.93;76.76
84592;BME280;74826;50.812;16.038;2023-12-29T04:03:29;96327.66;;;3.85;77.71
84592;BME280;74826;50.812;16.038;2023-12-29T04:05:54;96342.19;;;3.91;77.43
84592;BME280;74826;50.812;16.038;2023-12-29T04:08:19;96316.44;;;3.85;79.01
84592;BME280;74826;50.812;16.038;2023-12-29T04:10:45;96337.19;;;4.08;77.75
84592;BME280;74826;50.812;16.038;2023-12-29T04:13:10;96332.75;;;4.09;78.96
84592;BME280;74826;50.812;16.038;2023-12-29T04:15:36;96305.94;;;3.90;77.34
84592;BME280;74826;50.812;16.038;2023-12-29T04:18:01;96320.69;;;4.13;77.61
84592;BME280;74826;50.812;16.038;2023-12-29T04:20:27;96274.97;;;4.02;75.49
84592;BME280;74826;50.812;16.038;2023-12-29T04:22:52;96302.22;;;4.09;76.20
84592;BME280;74826;50.812;16.038;2023-12-29T04:25:18;96288.00;;;4.02;78.42
84592;BME280;74826;50.812;16.038;2023-12-29T04:27:43;96282.59;;;4.12;78.47
84592;BME280;74826;50.812;16.038;2023-12-29T04:30:09;96287.81;;;4.12;78.95
84592;BME280;74826;50.812;16.038;2023-12-29T04:32:35;96280.22;;;4.29;80.31
84592;BME280;74826;50.812;16.038;2023-12-29T04:35:00;96275.72;;;4.16;82.46
84592;BME280;74826;50.812;16.038;2023-12-29T04:37:26;96275.25;;;4.41;84.47
84592;BME280;74826;50.812;16.038;2023-12-29T04:39:51;96275.19;;;4.73;84.21
84592;BME280;74826;50.812;16.038;2023-12-29T04:42:16;96260.25;;;4.87;83.10
84592;BME280;74826;50.812;16.038;2023-12-29T04:44:43;96270.97;;;5.35;81.86
84592;BME280;74826;50.812;16.038;2023-12-29T04:47:09;96283.19;;;5.62;81.68
84592;BME280;74826;50.812;16.038;2023-12-29T04:49:34;96266.25;;;5.59;81.02
84592;BME280;74826;50.812;16.038;2023-12-29T04:51:59;96271.00;;;5.79;80.66
84592;BME280;74826;50.812;16.038;2023-12-29T04:54:25;96287.16;;;6.03;78.26
84592;BME280;74826;50.812;16.038;2023-12-29T04:56:50;96292.81;;;6.19;78.26
84592;BME280;74826;50.812;16.038;2023-12-29T04:59:16;96297.94;;;6.32;77.57
84592;BME280;74826;50.812;16.038;2023-12-29T05:01:41;96291.97;;;6.41;77.56
84592;BME280;74826;50.812;16.038;2023-12-29T05:04:06;96272.22;;;6.35;76.77
84592;BME280;74826;50.812;16.038;2023-12-29T05:06:32;96272.53;;;6.33;76.94
84592;BME280;74826;50.812;16.038;2023-12-29T05:08:57;96276.53;;;6.30;77.02
84592;BME280;74826;50.812;16.038;2023-12-29T05:11:23;96262.97;;;6.28;76.38
84592;BME280;74826;50.812;16.038;2023-12-29T05:13:48;96283.38;;;6.49;76.19
84592;BME280;74826;50.812;16.038;2023-12-29T05:16:13;96286.06;;;6.57;75.33
84592;BME280;74826;50.812;16.038;2023-12-29T05:18:39;96280.81;;;6.57;72.67
84592;BME280;74826;50.812;16.038;2023-12-29T05:21:05;96294.97;;;6.56;72.33
84592;BME280;74826;50.812;16.038;2023-12-29T05:23:30;96280.25;;;6.38;71.89
84592;BME280;74826;50.812;16.038;2023-12-29T05:25:56;96280.31;;;6.16;72.08
84592;BME280;74826;50.812;16.038;2023-12-29T05:28:21;96284.31;;;5.91;72.67
84592;BME280;74826;50.812;16.038;2023-12-29T05:30:47;96286.09;;;5.82;73.54
84592;BME280;74826;50.812;16.038;2023-12-29T05:33:12;96275.69;;;5.69;75.20
84592;BME280;74826;50.812;16.038;2023-12-29T05:35:37;96276.47;;;5.91;75.69
84592;BME280;74826;50.812;16.038;2023-12-29T05:38:03;96295.78;;;6.26;75.34
84592;BME280;74826;50.812;16.038;2023-12-29T05:40:28;96302.72;;;6.30;75.05
84592;BME280;74826;50.812;16.038;2023-12-29T05:42:54;96300.63;;;6.41;74.63
84592;BME280;74826;50.812;16.038;2023-12-29T05:45:19;96289.84;;;6.43;74.76
84592;BME280;74826;50.812;16.038;2023-12-29T05:47:45;96282.78;;;6.52;73.37
84592;BME280;74826;50.812;16.038;2023-12-29T05:50:11;96274.31;;;6.63;72.01
84592;BME280;74826;50.812;16.038;2023-12-29T05:52:36;96292.22;;;6.61;72.51
84592;BME280;74826;50.812;16.038;2023-12-29T05:55:01;96286.66;;;6.54;72.88
84592;BME280;74826;50.812;16.038;2023-12-29T05:57:27;96281.41;;;6.54;74.26
84592;BME280;74826;50.812;16.038;2023-12-29T05:59:52;96262.84;;;6.42;73.82
84592;BME280;74826;50.812;16.038;2023-12-29T06:02:17;96263.22;;;6.49;73.52
84592;BME280;74826;50.812;16.038;2023-12-29T06:04:43;96278.97;;;6.66;73.26
84592;BME280;74826;50.812;16.038;2023-12-29T06:07:08;96277.03;;;6.80;72.51
84592;BME280;74826;50.812;16.038;2023-12-29T06:09:34;96248.75;;;6.60;72.54
84592;BME280;74826;50.812;16.038;2023-12-29T06:11:59;96258.94;;;6.70;72.10
84592;BME280;74826;50.812;16.038;2023-12-29T06:14:25;96258.31;;;6.73;71.96
84592;BME280;74826;50.812;16.038;2023-12-29T06:16:52;96265.13;;;6.74;72.50
84592;BME280;74826;50.812;16.038;2023-12-29T06:19:17;96268.69;;;6.78;72.85
84592;BME280;74826;50.812;16.038;2023-12-29T06:21:43;96264.06;;;6.84;73.22
84592;BME280;74826;50.812;16.038;2023-12-29T06:24:12;96239.81;;;6.70;72.52
84592;BME280;74826;50.812;16.038;2023-12-29T06:26:37;96250.81;;;6.80;73.26
84592;BME280;74826;50.812;16.038;2023-12-29T06:29:08;96251.28;;;6.82;73.23
84592;BME280;74826;50.812;16.038;2023-12-29T06:31:34;96274.59;;;7.09;71.78
84592;BME280;74826;50.812;16.038;2023-12-29T06:33:59;96248.50;;;7.04;70.91
84592;BME280;74826;50.812;16.038;2023-12-29T06:36:25;96246.06;;;7.16;69.59
84592;BME280;74826;50.812;16.038;2023-12-29T06:38:51;96246.34;;;7.06;70.58
84592;BME280;74826;50.812;16.038;2023-12-29T06:41:17;96243.72;;;7.06;70.70
84592;BME280;74826;50.812;16.038;2023-12-29T06:43:42;96271.84;;;7.23;70.11
84592;BME280;74826;50.812;16.038;2023-12-29T06:46:08;96255.63;;;7.12;68.04
84592;BME280;74826;50.812;16.038;2023-12-29T06:48:34;96251.00;;;7.18;69.14
84592;BME280;74826;50.812;16.038;2023-12-29T06:50:59;96251.31;;;7.08;68.62
84592;BME280;74826;50.812;16.038;2023-12-29T06:53:25;96272.00;;;7.27;67.61
84592;BME280;74826;50.812;16.038;2023-12-29T06:55:51;96266.44;;;7.37;69.67
84592;BME280;74826;50.812;16.038;2023-12-29T06:58:16;96251.63;;;7.41;70.02
84592;BME280;74826;50.812;16.038;2023-12-29T07:00:41;96247.00;;;7.38;70.12
84592;BME280;74826;50.812;16.038;2023-12-29T07:03:07;96264.28;;;7.39;70.97
84592;BME280;74826;50.812;16.038;2023-12-29T07:05:32;96263.38;;;7.35;70.19
84592;BME280;74826;50.812;16.038;2023-12-29T07:07:58;96246.38;;;7.41;70.80
84592;BME280;74826;50.812;16.038;2023-12-29T07:10:23;96271.38;;;7.55;70.10
84592;BME280;74826;50.812;16.038;2023-12-29T07:12:48;96263.34;;;7.52;70.24
84592;BME280;74826;50.812;16.038;2023-12-29T07:15:14;96254.72;;;7.43;71.23
84592;BME280;74826;50.812;16.038;2023-12-29T07:17:39;96255.31;;;7.40;71.49
84592;BME280;74826;50.812;16.038;2023-12-29T07:20:06;96257.34;;;7.34;71.13
84592;BME280;74826;50.812;16.038;2023-12-29T07:22:32;96252.25;;;7.38;70.94
84592;BME280;74826;50.812;16.038;2023-12-29T07:24:58;96255.81;;;7.33;70.90
84592;BME280;74826;50.812;16.038;2023-12-29T07:27:23;96259.03;;;7.30;71.71
84592;BME280;74826;50.812;16.038;2023-12-29T07:29:49;96249.16;;;7.36;71.29
84592;BME280;74826;50.812;16.038;2023-12-29T07:32:14;96262.28;;;7.44;70.70
84592;BME280;74826;50.812;16.038;2023-12-29T07:34:39;96249.47;;;7.43;70.42
84592;BME280;74826;50.812;16.038;2023-12-29T07:37:05;96276.31;;;7.57;71.24
84592;BME280;74826;50.812;16.038;2023-12-29T07:39:30;96279.25;;;7.72;70.92
84592;BME280;74826;50.812;16.038;2023-12-29T07:41:55;96265.97;;;7.77;69.62
84592;BME280;74826;50.812;16.038;2023-12-29T07:44:21;96282.47;;;7.86;69.99
84592;BME280;74826;50.812;16.038;2023-12-29T07:46:46;96282.59;;;7.98;69.02
84592;BME280;74826;50.812;16.038;2023-12-29T07:49:11;96272.91;;;7.82;70.29
84592;BME280;74826;50.812;16.038;2023-12-29T07:51:41;96271.78;;;8.00;69.14
84592;BME280;74826;50.812;16.038;2023-12-29T07:54:07;96279.81;;;8.03;69.68
84592;BME280;74826;50.812;16.038;2023-12-29T07:56:33;96288.03;;;7.85;70.34
84592;BME280;74826;50.812;16.038;2023-12-29T07:58:58;96260.09;;;7.63;69.52
84592;BME280;74826;50.812;16.038;2023-12-29T08:01:24;96269.97;;;7.75;69.83
84592;BME280;74826;50.812;16.038;2023-12-29T08:03:49;96267.84;;;7.68;70.46
84592;BME280;74826;50.812;16.038;2023-12-29T08:06:15;96240.47;;;7.61;70.12
84592;BME280;74826;50.812;16.038;2023-12-29T08:08:40;96282.94;;;7.80;69.41
84592;BME280;74826;50.812;16.038;2023-12-29T08:11:06;96277.22;;;7.95;69.17
84592;BME280;74826;50.812;16.038;2023-12-29T08:13:37;96275.97;;;8.01;68.77
84592;BME280;74826;50.812;16.038;2023-12-29T08:16:03;96280.75;;;7.99;68.37
84592;BME280;74826;50.812;16.038;2023-12-29T08:18:28;96292.78;;;8.17;68.09
84592;BME280;74826;50.812;16.038;2023-12-29T08:20:53;96298.81;;;8.26;67.38
84592;BME280;74826;50.812;16.038;2023-12-29T08:23:19;96276.38;;;8.20;67.73
84592;BME280;74826;50.812;16.038;2023-12-29T08:25:44;96294.25;;;8.52;67.43
84592;BME280;74826;50.812;16.038;2023-12-29T08:28:10;96287.81;;;8.70;66.31
84592;BME280;74826;50.812;16.038;2023-12-29T08:30:35;96269.28;;;8.58;65.44
84592;BME280;74826;50.812;16.038;2023-12-29T08:33:02;96276.31;;;8.83;65.19
84592;BME280;74826;50.812;16.038;2023-12-29T08:35:28;96260.91;;;8.94;65.43
84592;BME280;74826;50.812;16.038;2023-12-29T08:37:53;96272.34;;;8.98;64.42
84592;BME280;74826;50.812;16.038;2023-12-29T08:40:18;96285.22;;;9.41;62.99
84592;BME280;74826;50.812;16.038;2023-12-29T08:42:44;96257.47;;;9.23;62.43
84592;BME280;74826;50.812;16.038;2023-12-29T08:45:09;96273.41;;;9.47;61.58
84592;BME280;74826;50.812;16.038;2023-12-29T08:47:34;96263.88;;;9.75;61.32
84592;BME280;74826;50.812;16.038;2023-12-29T08:50:00;96274.75;;;10.06;60.90
84592;BME280;74826;50.812;16.038;2023-12-29T08:52:27;96279.41;;;10.21;59.12
84592;BME280;74826;50.812;16.038;2023-12-29T08:54:52;96274.63;;;10.35;58.82
84592;BME280;74826;50.812;16.038;2023-12-29T08:57:17;96282.66;;;10.51;57.33
84592;BME280;74826;50.812;16.038;2023-12-29T08:59:43;96300.38;;;10.62;57.83
84592;BME280;74826;50.812;16.038;2023-12-29T09:02:08;96281.44;;;10.60;58.20
84592;BME280;74826;50.812;16.038;2023-12-29T09:04:34;96298.16;;;11.01;57.50
84592;BME280;74826;50.812;16.038;2023-12-29T09:06:59;96284.97;;;10.89;56.77
84592;BME280;74826;50.812;16.038;2023-12-29T09:09:24;96295.31;;;11.06;56.80
84592;BME280;74826;50.812;16.038;2023-12-29T09:11:50;96278.34;;;11.31;55.55
84592;BME280;74826;50.812;16.038;2023-12-29T09:14:15;96283.53;;;11.67;54.68
84592;BME280;74826;50.812;16.038;2023-12-29T09:16:41;96295.84;;;11.75;54.68
84592;BME280;74826;50.812;16.038;2023-12-29T09:19:08;96254.59;;;11.86;55.01
84592;BME280;74826;50.812;16.038;2023-12-29T09:21:33;96284.66;;;11.66;56.13
84592;BME280;74826;50.812;16.038;2023-12-29T09:23:58;96278.25;;;11.03;58.25
84592;BME280;74826;50.812;16.038;2023-12-29T09:26:24;96295.69;;;11.44;57.10
84592;BME280;74826;50.812;16.038;2023-12-29T09:28:49;96292.06;;;11.76;56.68
84592;BME280;74826;50.812;16.038;2023-12-29T09:31:14;96302.81;;;11.95;55.82
84592;BME280;74826;50.812;16.038;2023-12-29T09:33:40;96295.06;;;11.62;56.55
84592;BME280;74826;50.812;16.038;2023-12-29T09:36:05;96301.59;;;12.20;55.12
84592;BME280;74826;50.812;16.038;2023-12-29T09:38:31;96316.22;;;12.02;55.99
84592;BME280;74826;50.812;16.038;2023-12-29T09:41:01;96322.66;;;11.37;56.09
84592;BME280;74826;50.812;16.038;2023-12-29T09:43:31;96329.16;;;11.16;57.92
84592;BME280;74826;50.812;16.038;2023-12-29T09:45:58;96326.75;;;10.99;58.18
84592;BME280;74826;50.812;16.038;2023-12-29T09:48:26;96329.38;;;10.99;58.89
84592;BME280;74826;50.812;16.038;2023-12-29T09:50:52;96324.66;;;11.04;58.57
84592;BME280;74826;50.812;16.038;2023-12-29T09:53:20;96332.22;;;11.30;58.41
84592;BME280;74826;50.812;16.038;2023-12-29T09:55:48;96327.63;;;11.39;57.94
84592;BME280;74826;50.812;16.038;2023-12-29T09:58:15;96316.88;;;11.72;57.33
84592;BME280;74826;50.812;16.038;2023-12-29T10:00:42;96318.09;;;12.61;54.71
84592;BME280;74826;50.812;16.038;2023-12-29T10:03:08;96323.91;;;13.13;51.91
84592;BME280;74826;50.812;16.038;2023-12-29T10:05:34;96316.31;;;13.27;49.48
84592;BME280;74826;50.812;16.038;2023-12-29T10:08:00;96303.09;;;13.46;49.98
84592;BME280;74826;50.812;16.038;2023-12-29T10:10:27;96294.16;;;13.54;48.39
84592;BME280;74826;50.812;16.038;2023-12-29T10:12:54;96278.97;;;13.51;47.83
84592;BME280;74826;50.812;16.038;2023-12-29T10:15:23;96296.56;;;13.59;49.93
84592;BME280;74826;50.812;16.038;2023-12-29T10:18:02;96291.00;;;14.25;48.16
84592;BME280;74826;50.812;16.038;2023-12-29T10:20:42;96285.78;;;14.28;48.01
84592;BME280;74826;50.812;16.038;2023-12-29T10:23:13;96240.97;;;14.23;47.43
84592;BME280;74826;50.812;16.038;2023-12-29T10:25:42;96268.38;;;15.25;45.96
84592;BME280;74826;50.812;16.038;2023-12-29T10:28:09;96272.28;;;14.82;45.93
84592;BME280;74826;50.812;16.038;2023-12-29T10:30:36;96280.31;;;14.41;48.05
84592;BME280;74826;50.812;16.038;2023-12-29T10:33:03;96283.13;;;13.33;50.33
84592;BME280;74826;50.812;16.038;2023-12-29T10:35:29;96304.28;;;13.14;51.00
84592;BME280;74826;50.812;16.038;2023-12-29T10:38:08;96290.34;;;13.17;51.86
84592;BME280;74826;50.812;16.038;2023-12-29T10:40:34;96286.97;;;12.70;53.07
84592;BME280;74826;50.812;16.038;2023-12-29T10:43:00;96274.28;;;12.16;53.03
84592;BME280;74826;50.812;16.038;2023-12-29T10:45:30;96264.97;;;12.07;54.51
84592;BME280;74826;50.812;16.038;2023-12-29T10:47:55;96281.72;;;11.83;53.21
84592;BME280;74826;50.812;16.038;2023-12-29T10:50:20;96270.53;;;11.74;54.17
84592;BME280;74826;50.812;16.038;2023-12-29T10:52:46;96245.47;;;11.56;55.17
84592;BME280;74826;50.812;16.038;2023-12-29T10:55:12;96256.31;;;11.39;56.24
84592;BME280;74826;50.812;16.038;2023-12-29T10:57:38;96276.06;;;11.45;54.91
84592;BME280;74826;50.812;16.038;2023-12-29T11:00:04;96266.47;;;11.25;55.46
84592;BME280;74826;50.812;16.038;2023-12-29T11:02:31;96281.97;;;11.14;57.03
84592;BME280;74826;50.812;16.038;2023-12-29T11:07:40;96272.00;;;10.84;58.65
84592;BME280;74826;50.812;16.038;2023-12-29T11:10:07;96280.19;;;10.34;60.09
84592;BME280;74826;50.812;16.038;2023-12-29T11:12:34;96271.25;;;10.14;60.93
84592;BME280;74826;50.812;16.038;2023-12-29T11:15:06;96250.53;;;10.97;58.21
84592;BME280;74826;50.812;16.038;2023-12-29T11:17:34;96265.13;;;11.31;57.50
84592;BME280;74826;50.812;16.038;2023-12-29T11:20:01;96267.97;;;11.26;56.73
84592;BME280;74826;50.812;16.038;2023-12-29T11:22:30;96262.09;;;10.81;58.34
84592;BME280;74826;50.812;16.038;2023-12-29T11:24:57;96275.28;;;11.17;57.15
84592;BME280;74826;50.812;16.038;2023-12-29T11:27:27;96269.50;;;11.39;56.37
84592;BME280;74826;50.812;16.038;2023-12-29T11:29:55;96268.22;;;11.33;56.59
84592;BME280;74826;50.812;16.038;2023-12-29T11:32:24;96258.56;;;11.13;57.25
84592;BME280;74826;50.812;16.038;2023-12-29T11:34:57;96265.88;;;11.31;56.23
84592;BME280;74826;50.812;16.038;2023-12-29T11:37:33;96259.72;;;11.79;54.99
84592;BME280;74826;50.812;16.038;2023-12-29T11:40:19;96271.72;;;12.04;53.83
84592;BME280;74826;50.812;16.038;2023-12-29T11:42:48;96268.34;;;12.50;53.53
84592;BME280;74826;50.812;16.038;2023-12-29T11:45:25;96274.41;;;12.51;52.70
84592;BME280;74826;50.812;16.038;2023-12-29T11:47:51;96270.91;;;12.63;53.57
84592;BME280;74826;50.812;16.038;2023-12-29T11:50:28;96293.69;;;12.51;51.45
84592;BME280;74826;50.812;16.038;2023-12-29T11:52:53;96265.25;;;12.80;48.95
84592;BME280;74826;50.812;16.038;2023-12-29T11:55:19;96276.41;;;13.20;50.08
84592;BME280;74826;50.812;16.038;2023-12-29T11:57:44;96277.75;;;12.64;51.17
84592;BME280;74826;50.812;16.038;2023-12-29T12:00:10;96276.38;;;12.38;52.81
84592;BME280;74826;50.812;16.038;2023-12-29T12:02:37;96286.41;;;13.11;50.78
84592;BME280;74826;50.812;16.038;2023-12-29T12:05:04;96267.81;;;13.61;48.51
84592;BME280;74826;50.812;16.038;2023-12-29T12:12:44;96255.63;;;14.17;46.46
84592;BME280;74826;50.812;16.038;2023-12-29T12:18:01;96265.84;;;13.58;48.61
84592;BME280;74826;50.812;16.038;2023-12-29T12:20:31;96276.00;;;13.18;49.75
84592;BME280;74826;50.812;16.038;2023-12-29T12:22:57;96268.81;;;12.09;52.57
84592;BME280;74826;50.812;16.038;2023-12-29T12:25:27;96266.63;;;11.84;53.46
84592;BME280;74826;50.812;16.038;2023-12-29T12:27:53;96276.09;;;11.85;53.10
84592;BME280;74826;50.812;16.038;2023-12-29T12:30:19;96283.72;;;11.22;55.09
84592;BME280;74826;50.812;16.038;2023-12-29T12:32:44;96272.00;;;10.84;56.62
84592;BME280;74826;50.812;16.038;2023-12-29T12:35:14;96271.56;;;10.94;56.63
84592;BME280;74826;50.812;16.038;2023-12-29T12:37:42;96277.81;;;10.65;57.38
84592;BME280;74826;50.812;16.038;2023-12-29T12:40:08;96261.88;;;10.49;58.79
84592;BME280;74826;50.812;16.038;2023-12-29T12:42:38;96263.31;;;10.59;58.70
84592;BME280;74826;50.812;16.038;2023-12-29T12:45:17;96260.34;;;10.48;58.07
84592;BME280;74826;50.812;16.038;2023-12-29T12:47:50;96249.69;;;10.45;57.13
84592;BME280;74826;50.812;16.038;2023-12-29T12:50:16;96240.78;;;10.37;57.16
84592;BME280;74826;50.812;16.038;2023-12-29T12:52:42;96242.94;;;10.23;56.90
84592;BME280;74826;50.812;16.038;2023-12-29T12:55:08;96273.19;;;10.50;57.58
84592;BME280;74826;50.812;16.038;2023-12-29T12:57:35;96263.72;;;10.37;57.71
84592;BME280;74826;50.812;16.038;2023-12-29T13:00:02;96223.69;;;10.11;58.56
84592;BME280;74826;50.812;16.038;2023-12-29T13:02:28;96249.44;;;10.26;58.27
84592;BME280;74826;50.812;16.038;2023-12-29T13:04:55;96272.63;;;10.44;58.97
84592;BME280;74826;50.812;16.038;2023-12-29T13:07:21;96272.63;;;10.32;58.98